sensor_id;sensor_type;location;lat;lon;timestamp;P1;durP1;ratioP1;P2;durP2;ratioP2
67749;SDS011;54550;48.838;8.828;2023-07-02T00:01:42;11.77;;;6.87;;
67749;SDS011;54550;48.838;8.828;2023-07-02T00:04:08;5.83;;;5.23;;
67749;SDS011;54550;48.838;8.828;2023-07-02T00:06:34;5.77;;;5.17;;
67749;SDS011;54550;48.838;8.828;2023-07-02T00:09:05;5.30;;;4.80;;
67749;SDS011;54550;48.838;8.828;2023-07-02T00:11:31;6.80;;;5.10;;
67749;SDS011;54550;48.838;8.828;2023-07-02T00:13:56;6.07;;;4.80;;
67749;SDS011;54550;48.838;8.828;2023-07-02T00:16:22;9.27;;;5.23;;
67749;SDS011;54550;48.838;8.828;2023-07-02T00:18:47;8.20;;;4.30;;
67749;SDS011;54550;48.838;8.828;2023-07-02T00:21:17;4.53;;;4.13;;
67749;SDS011;54550;48.838;8.828;2023-07-02T00:23:44;7.27;;;4.43;;
67749;SDS011;54550;48.838;8.828;2023-07-02T00:26:09;8.30;;;4.67;;
67749;SDS011;54550;48.838;8.828;2023-07-02T00:28:35;7.83;;;4.60;;
67749;SDS011;54550;48.838;8.828;2023-07-02T00:31:00;7.50;;;5.40;;
67749;SDS011;54550;48.838;8.828;2023-07-02T00:33:27;6.57;;;4.73;;
67749;SDS011;54550;48.838;8.828;2023-07-02T00:35:54;13.57;;;5.67;;
67749;SDS011;54550;48.838;8.828;2023-07-02T00:38:19;12.73;;;5.20;;
67749;SDS011;54550;48.838;8.828;2023-07-02T00:40:45;8.70;;;4.80;;
67749;SDS011;54550;48.838;8.828;2023-07-02T00:43:10;10.03;;;5.03;;
67749;SDS011;54550;48.838;8.828;2023-07-02T00:45:38;13.33;;;5.03;;
67749;SDS011;54550;48.838;8.828;2023-07-02T00:48:05;6.63;;;4.50;;
67749;SDS011;54550;48.838;8.828;2023-07-02T00:50:31;7.30;;;5.50;;
67749;SDS011;54550;48.838;8.828;2023-07-02T00:52:57;5.20;;;4.60;;
67749;SDS011;54550;48.838;8.828;2023-07-02T00:55:23;4.37;;;3.97;;
67749;SDS011;54550;48.838;8.828;2023-07-02T00:57:49;7.03;;;4.73;;
67749;SDS011;54550;48.838;8.828;2023-07-02T01:00:15;6.63;;;5.90;;
67749;SDS011;54550;48.838;8.828;2023-07-02T01:02:41;7.60;;;4.80;;
67749;SDS011;54550;48.838;8.828;2023-07-02T01:05:16;5.87;;;4.37;;
67749;SDS011;54550;48.838;8.828;2023-07-02T01:07:41;9.20;;;4.80;;
67749;SDS011;54550;48.838;8.828;2023-07-02T01:10:07;5.77;;;5.10;;
67749;SDS011;54550;48.838;8.828;2023-07-02T01:12:33;6.33;;;5.70;;
67749;SDS011;54550;48.838;8.828;2023-07-02T01:15:02;8.77;;;5.60;;
67749;SDS011;54550;48.838;8.828;2023-07-02T01:17:29;5.80;;;5.20;;
67749;SDS011;54550;48.838;8.828;2023-07-02T01:20:05;7.47;;;5.20;;
67749;SDS011;54550;48.838;8.828;2023-07-02T01:22:33;9.10;;;5.73;;
67749;SDS011;54550;48.838;8.828;2023-07-02T01:25:00;10.43;;;5.33;;
67749;SDS011;54550;48.838;8.828;2023-07-02T01:27:29;10.10;;;5.83;;
67749;SDS011;54550;48.838;8.828;2023-07-02T01:29:55;9.70;;;5.83;;
67749;SDS011;54550;48.838;8.828;2023-07-02T01:32:21;10.77;;;4.83;;
67749;SDS011;54550;48.838;8.828;2023-07-02T01:34:47;8.17;;;5.63;;
67749;SDS011;54550;48.838;8.828;2023-07-02T01:37:14;24.63;;;5.53;;
67749;SDS011;54550;48.838;8.828;2023-07-02T01:39:43;8.90;;;5.60;;
67749;SDS011;54550;48.838;8.828;2023-07-02T01:42:09;9.83;;;5.53;;
67749;SDS011;54550;48.838;8.828;2023-07-02T01:44:36;18.60;;;6.00;;
67749;SDS011;54550;48.838;8.828;2023-07-02T01:47:03;8.87;;;6.10;;
67749;SDS011;54550;48.838;8.828;2023-07-02T01:49:29;9.37;;;5.87;;
67749;SDS011;54550;48.838;8.828;2023-07-02T01:51:55;6.33;;;5.20;;
67749;SDS011;54550;48.838;8.828;2023-07-02T01:54:22;7.60;;;5.13;;
67749;SDS011;54550;48.838;8.828;2023-07-02T01:56:48;10.07;;;6.40;;
67749;SDS011;54550;48.838;8.828;2023-07-02T01:59:14;8.57;;;5.77;;
67749;SDS011;54550;48.838;8.828;2023-07-02T02:01:41;9.93;;;5.23;;
67749;SDS011;54550;48.838;8.828;2023-07-02T02:04:07;7.67;;;5.27;;
67749;SDS011;54550;48.838;8.828;2023-07-02T02:06:34;5.87;;;5.30;;
67749;SDS011;54550;48.838;8.828;2023-07-02T02:09:00;7.30;;;5.00;;
67749;SDS011;54550;48.838;8.828;2023-07-02T02:11:28;12.33;;;5.03;;
67749;SDS011;54550;48.838;8.828;2023-07-02T02:13:53;7.40;;;5.10;;
67749;SDS011;54550;48.838;8.828;2023-07-02T02:16:20;6.37;;;4.50;;
67749;SDS011;54550;48.838;8.828;2023-07-02T02:18:45;7.57;;;4.80;;
67749;SDS011;54550;48.838;8.828;2023-07-02T02:21:11;5.60;;;3.87;;
67749;SDS011;54550;48.838;8.828;2023-07-02T02:23:36;8.40;;;4.10;;
67749;SDS011;54550;48.838;8.828;2023-07-02T02:26:02;6.23;;;4.30;;
67749;SDS011;54550;48.838;8.828;2023-07-02T02:28:28;4.30;;;3.60;;
67749;SDS011;54550;48.838;8.828;2023-07-02T02:30:53;6.43;;;3.80;;
67749;SDS011;54550;48.838;8.828;2023-07-02T02:33:19;6.20;;;4.40;;
67749;SDS011;54550;48.838;8.828;2023-07-02T02:35:45;5.33;;;4.03;;
67749;SDS011;54550;48.838;8.828;2023-07-02T02:38:11;4.40;;;3.77;;
67749;SDS011;54550;48.838;8.828;2023-07-02T02:40:37;5.13;;;4.50;;
67749;SDS011;54550;48.838;8.828;2023-07-02T02:43:02;7.90;;;4.50;;
67749;SDS011;54550;48.838;8.828;2023-07-02T02:45:28;6.00;;;4.17;;
67749;SDS011;54550;48.838;8.828;2023-07-02T02:47:54;5.40;;;4.60;;
67749;SDS011;54550;48.838;8.828;2023-07-02T02:50:19;7.50;;;5.40;;
67749;SDS011;54550;48.838;8.828;2023-07-02T02:52:45;5.07;;;4.20;;
67749;SDS011;54550;48.838;8.828;2023-07-02T02:55:11;13.70;;;5.80;;
67749;SDS011;54550;48.838;8.828;2023-07-02T02:57:37;9.63;;;5.40;;
67749;SDS011;54550;48.838;8.828;2023-07-02T03:00:03;7.13;;;4.70;;
67749;SDS011;54550;48.838;8.828;2023-07-02T03:02:30;10.03;;;6.43;;
67749;SDS011;54550;48.838;8.828;2023-07-02T03:04:55;9.03;;;5.47;;
67749;SDS011;54550;48.838;8.828;2023-07-02T03:07:22;10.07;;;5.40;;
67749;SDS011;54550;48.838;8.828;2023-07-02T03:09:47;9.63;;;5.50;;
67749;SDS011;54550;48.838;8.828;2023-07-02T03:12:13;12.90;;;6.07;;
67749;SDS011;54550;48.838;8.828;2023-07-02T03:14:39;18.33;;;5.70;;
67749;SDS011;54550;48.838;8.828;2023-07-02T03:17:04;8.93;;;5.00;;
67749;SDS011;54550;48.838;8.828;2023-07-02T03:19:30;13.40;;;5.33;;
67749;SDS011;54550;48.838;8.828;2023-07-02T03:21:55;19.70;;;4.33;;
67749;SDS011;54550;48.838;8.828;2023-07-02T03:24:21;9.03;;;4.70;;
67749;SDS011;54550;48.838;8.828;2023-07-02T03:26:46;21.70;;;5.90;;
67749;SDS011;54550;48.838;8.828;2023-07-02T03:29:12;7.90;;;4.10;;
67749;SDS011;54550;48.838;8.828;2023-07-02T03:31:38;14.43;;;5.60;;
67749;SDS011;54550;48.838;8.828;2023-07-02T03:34:05;8.17;;;5.70;;
67749;SDS011;54550;48.838;8.828;2023-07-02T03:36:35;8.93;;;4.70;;
67749;SDS011;54550;48.838;8.828;2023-07-02T03:39:01;14.93;;;5.43;;
67749;SDS011;54550;48.838;8.828;2023-07-02T03:41:27;8.70;;;5.50;;
67749;SDS011;54550;48.838;8.828;2023-07-02T03:43:53;18.77;;;5.77;;
67749;SDS011;54550;48.838;8.828;2023-07-02T03:46:19;16.90;;;6.40;;
67749;SDS011;54550;48.838;8.828;2023-07-02T03:48:44;14.57;;;4.90;;
67749;SDS011;54550;48.838;8.828;2023-07-02T03:51:10;14.20;;;6.50;;
67749;SDS011;54550;48.838;8.828;2023-07-02T03:53:37;11.33;;;5.30;;
67749;SDS011;54550;48.838;8.828;2023-07-02T03:56:03;14.33;;;5.93;;
67749;SDS011;54550;48.838;8.828;2023-07-02T03:58:29;8.47;;;5.53;;
67749;SDS011;54550;48.838;8.828;2023-07-02T04:00:54;18.87;;;7.30;;
67749;SDS011;54550;48.838;8.828;2023-07-02T04:03:20;7.43;;;6.30;;
67749;SDS011;54550;48.838;8.828;2023-07-02T04:05:45;13.67;;;6.23;;
67749;SDS011;54550;48.838;8.828;2023-07-02T04:08:11;9.90;;;6.30;;
67749;SDS011;54550;48.838;8.828;2023-07-02T04:10:36;12.37;;;7.50;;
67749;SDS011;54550;48.838;8.828;2023-07-02T04:13:02;7.87;;;6.67;;
67749;SDS011;54550;48.838;8.828;2023-07-02T04:15:28;9.03;;;5.63;;
67749;SDS011;54550;48.838;8.828;2023-07-02T04:17:53;12.83;;;6.13;;
67749;SDS011;54550;48.838;8.828;2023-07-02T04:20:19;13.80;;;6.63;;
67749;SDS011;54550;48.838;8.828;2023-07-02T04:22:45;10.93;;;5.83;;
67749;SDS011;54550;48.838;8.828;2023-07-02T04:25:11;13.93;;;6.47;;
67749;SDS011;54550;48.838;8.828;2023-07-02T04:27:41;14.10;;;5.77;;
67749;SDS011;54550;48.838;8.828;2023-07-02T04:30:07;6.90;;;5.33;;
67749;SDS011;54550;48.838;8.828;2023-07-02T04:32:34;8.30;;;5.10;;
67749;SDS011;54550;48.838;8.828;2023-07-02T04:35:00;9.43;;;4.50;;
67749;SDS011;54550;48.838;8.828;2023-07-02T04:37:26;9.90;;;4.00;;
67749;SDS011;54550;48.838;8.828;2023-07-02T04:39:53;6.30;;;3.80;;
67749;SDS011;54550;48.838;8.828;2023-07-02T04:42:19;8.43;;;3.70;;
67749;SDS011;54550;48.838;8.828;2023-07-02T04:44:45;10.77;;;3.97;;
67749;SDS011;54550;48.838;8.828;2023-07-02T04:47:10;6.47;;;3.83;;
67749;SDS011;54550;48.838;8.828;2023-07-02T04:49:37;13.30;;;3.80;;
67749;SDS011;54550;48.838;8.828;2023-07-02T04:52:03;4.27;;;2.87;;
67749;SDS011;54550;48.838;8.828;2023-07-02T04:54:28;15.30;;;3.67;;
67749;SDS011;54550;48.838;8.828;2023-07-02T04:56:54;10.73;;;4.53;;
67749;SDS011;54550;48.838;8.828;2023-07-02T04:59:20;5.97;;;3.27;;
67749;SDS011;54550;48.838;8.828;2023-07-02T05:01:46;8.40;;;3.20;;
67749;SDS011;54550;48.838;8.828;2023-07-02T05:04:12;7.03;;;2.90;;
67749;SDS011;54550;48.838;8.828;2023-07-02T05:06:38;7.90;;;3.50;;
67749;SDS011;54550;48.838;8.828;2023-07-02T05:09:04;6.70;;;3.20;;
67749;SDS011;54550;48.838;8.828;2023-07-02T05:11:29;4.60;;;2.80;;
67749;SDS011;54550;48.838;8.828;2023-07-02T05:13:55;7.70;;;3.70;;
67749;SDS011;54550;48.838;8.828;2023-07-02T05:16:21;3.90;;;2.70;;
67749;SDS011;54550;48.838;8.828;2023-07-02T05:18:46;12.83;;;3.00;;
67749;SDS011;54550;48.838;8.828;2023-07-02T05:21:12;7.40;;;3.27;;
67749;SDS011;54550;48.838;8.828;2023-07-02T05:23:37;9.37;;;3.10;;
67749;SDS011;54550;48.838;8.828;2023-07-02T05:26:03;21.37;;;3.67;;
67749;SDS011;54550;48.838;8.828;2023-07-02T05:28:29;5.83;;;3.33;;
67749;SDS011;54550;48.838;8.828;2023-07-02T05:30:54;14.03;;;3.27;;
67749;SDS011;54550;48.838;8.828;2023-07-02T05:33:20;8.30;;;3.47;;
67749;SDS011;54550;48.838;8.828;2023-07-02T05:35:47;6.50;;;3.30;;
67749;SDS011;54550;48.838;8.828;2023-07-02T05:38:13;12.30;;;3.70;;
67749;SDS011;54550;48.838;8.828;2023-07-02T05:40:38;6.70;;;4.00;;
67749;SDS011;54550;48.838;8.828;2023-07-02T05:43:04;10.00;;;4.00;;
67749;SDS011;54550;48.838;8.828;2023-07-02T05:45:30;5.47;;;3.60;;
67749;SDS011;54550;48.838;8.828;2023-07-02T05:47:55;10.40;;;3.80;;
67749;SDS011;54550;48.838;8.828;2023-07-02T05:50:21;5.53;;;3.53;;
67749;SDS011;54550;48.838;8.828;2023-07-02T05:52:46;11.70;;;4.33;;
67749;SDS011;54550;48.838;8.828;2023-07-02T05:55:12;14.57;;;4.60;;
67749;SDS011;54550;48.838;8.828;2023-07-02T05:57:38;8.27;;;4.83;;
67749;SDS011;54550;48.838;8.828;2023-07-02T06:00:04;10.33;;;4.23;;
67749;SDS011;54550;48.838;8.828;2023-07-02T06:02:31;7.57;;;4.10;;
67749;SDS011;54550;48.838;8.828;2023-07-02T06:04:57;15.77;;;4.20;;
67749;SDS011;54550;48.838;8.828;2023-07-02T06:07:24;8.23;;;4.33;;
67749;SDS011;54550;48.838;8.828;2023-07-02T06:09:50;10.60;;;4.60;;
67749;SDS011;54550;48.838;8.828;2023-07-02T06:12:15;6.83;;;4.43;;
67749;SDS011;54550;48.838;8.828;2023-07-02T06:14:41;11.60;;;4.40;;
67749;SDS011;54550;48.838;8.828;2023-07-02T06:17:07;9.83;;;4.07;;
67749;SDS011;54550;48.838;8.828;2023-07-02T06:19:33;9.77;;;3.97;;
67749;SDS011;54550;48.838;8.828;2023-07-02T06:21:59;6.63;;;4.63;;
67749;SDS011;54550;48.838;8.828;2023-07-02T06:24:24;10.80;;;4.70;;
67749;SDS011;54550;48.838;8.828;2023-07-02T06:26:50;10.03;;;4.47;;
67749;SDS011;54550;48.838;8.828;2023-07-02T06:29:16;14.20;;;4.77;;
67749;SDS011;54550;48.838;8.828;2023-07-02T06:31:41;10.07;;;4.90;;
67749;SDS011;54550;48.838;8.828;2023-07-02T06:34:07;11.30;;;5.43;;
67749;SDS011;54550;48.838;8.828;2023-07-02T06:36:33;12.40;;;4.97;;
67749;SDS011;54550;48.838;8.828;2023-07-02T06:38:59;13.40;;;6.67;;
67749;SDS011;54550;48.838;8.828;2023-07-02T06:41:25;13.57;;;7.37;;
67749;SDS011;54550;48.838;8.828;2023-07-02T06:43:51;19.60;;;7.53;;
67749;SDS011;54550;48.838;8.828;2023-07-02T06:46:16;16.20;;;6.97;;
67749;SDS011;54550;48.838;8.828;2023-07-02T06:48:42;16.30;;;7.90;;
67749;SDS011;54550;48.838;8.828;2023-07-02T06:51:07;14.63;;;7.30;;
67749;SDS011;54550;48.838;8.828;2023-07-02T06:53:33;12.13;;;7.30;;
67749;SDS011;54550;48.838;8.828;2023-07-02T06:56:00;20.63;;;8.73;;
67749;SDS011;54550;48.838;8.828;2023-07-02T06:58:26;18.83;;;7.57;;
67749;SDS011;54550;48.838;8.828;2023-07-02T07:00:51;10.70;;;6.70;;
67749;SDS011;54550;48.838;8.828;2023-07-02T07:03:17;16.90;;;8.00;;
67749;SDS011;54550;48.838;8.828;2023-07-02T07:05:42;14.03;;;7.27;;
67749;SDS011;54550;48.838;8.828;2023-07-02T07:08:08;14.27;;;8.60;;
67749;SDS011;54550;48.838;8.828;2023-07-02T07:10:34;14.17;;;8.37;;
67749;SDS011;54550;48.838;8.828;2023-07-02T07:13:02;18.13;;;8.67;;
67749;SDS011;54550;48.838;8.828;2023-07-02T07:15:30;15.93;;;7.70;;
67749;SDS011;54550;48.838;8.828;2023-07-02T07:17:57;18.00;;;8.20;;
67749;SDS011;54550;48.838;8.828;2023-07-02T07:20:22;14.63;;;8.00;;
67749;SDS011;54550;48.838;8.828;2023-07-02T07:22:48;11.80;;;8.20;;
67749;SDS011;54550;48.838;8.828;2023-07-02T07:25:14;15.90;;;7.67;;
67749;SDS011;54550;48.838;8.828;2023-07-02T07:27:39;17.20;;;9.37;;
67749;SDS011;54550;48.838;8.828;2023-07-02T07:30:05;19.53;;;8.03;;
67749;SDS011;54550;48.838;8.828;2023-07-02T07:32:31;20.83;;;10.10;;
67749;SDS011;54550;48.838;8.828;2023-07-02T07:34:57;23.20;;;10.70;;
67749;SDS011;54550;48.838;8.828;2023-07-02T07:37:22;18.80;;;9.03;;
67749;SDS011;54550;48.838;8.828;2023-07-02T07:39:50;21.30;;;9.80;;
67749;SDS011;54550;48.838;8.828;2023-07-02T07:42:15;19.17;;;9.43;;
67749;SDS011;54550;48.838;8.828;2023-07-02T07:44:41;15.27;;;8.60;;
67749;SDS011;54550;48.838;8.828;2023-07-02T07:47:09;19.03;;;10.33;;
67749;SDS011;54550;48.838;8.828;2023-07-02T07:49:34;20.63;;;12.03;;
67749;SDS011;54550;48.838;8.828;2023-07-02T07:52:00;22.83;;;11.37;;
67749;SDS011;54550;48.838;8.828;2023-07-02T07:54:26;21.10;;;10.23;;
67749;SDS011;54550;48.838;8.828;2023-07-02T07:56:51;24.60;;;11.40;;
67749;SDS011;54550;48.838;8.828;2023-07-02T07:59:17;21.73;;;9.80;;
67749;SDS011;54550;48.838;8.828;2023-07-02T08:01:43;25.93;;;12.60;;
67749;SDS011;54550;48.838;8.828;2023-07-02T08:04:08;34.23;;;12.30;;
67749;SDS011;54550;48.838;8.828;2023-07-02T08:06:34;23.67;;;10.60;;
67749;SDS011;54550;48.838;8.828;2023-07-02T08:08:59;21.20;;;10.80;;
67749;SDS011;54550;48.838;8.828;2023-07-02T08:11:25;24.03;;;12.10;;
67749;SDS011;54550;48.838;8.828;2023-07-02T08:13:50;27.80;;;12.10;;
67749;SDS011;54550;48.838;8.828;2023-07-02T08:16:16;27.17;;;10.80;;
67749;SDS011;54550;48.838;8.828;2023-07-02T08:18:41;19.33;;;10.90;;
67749;SDS011;54550;48.838;8.828;2023-07-02T08:21:07;31.73;;;12.20;;
67749;SDS011;54550;48.838;8.828;2023-07-02T08:23:33;23.33;;;10.57;;
67749;SDS011;54550;48.838;8.828;2023-07-02T08:25:58;26.43;;;12.87;;
67749;SDS011;54550;48.838;8.828;2023-07-02T08:28:24;20.50;;;10.77;;
67749;SDS011;54550;48.838;8.828;2023-07-02T08:30:49;27.33;;;11.83;;
67749;SDS011;54550;48.838;8.828;2023-07-02T08:33:15;23.93;;;12.07;;
67749;SDS011;54550;48.838;8.828;2023-07-02T08:35:40;27.40;;;12.37;;
67749;SDS011;54550;48.838;8.828;2023-07-02T08:38:06;26.67;;;11.87;;
67749;SDS011;54550;48.838;8.828;2023-07-02T08:40:33;27.50;;;12.87;;
67749;SDS011;54550;48.838;8.828;2023-07-02T08:42:58;19.47;;;11.73;;
67749;SDS011;54550;48.838;8.828;2023-07-02T08:45:24;25.27;;;12.27;;
67749;SDS011;54550;48.838;8.828;2023-07-02T08:47:50;24.50;;;11.73;;
67749;SDS011;54550;48.838;8.828;2023-07-02T08:50:18;43.33;;;13.30;;
67749;SDS011;54550;48.838;8.828;2023-07-02T08:52:44;20.87;;;11.67;;
67749;SDS011;54550;48.838;8.828;2023-07-02T08:55:10;20.43;;;12.23;;
67749;SDS011;54550;48.838;8.828;2023-07-02T08:57:35;23.97;;;12.27;;
67749;SDS011;54550;48.838;8.828;2023-07-02T09:00:06;23.40;;;12.60;;
67749;SDS011;54550;48.838;8.828;2023-07-02T09:02:34;28.70;;;12.50;;
67749;SDS011;54550;48.838;8.828;2023-07-02T09:05:00;31.43;;;14.07;;
67749;SDS011;54550;48.838;8.828;2023-07-02T09:07:27;24.37;;;12.80;;
67749;SDS011;54550;48.838;8.828;2023-07-02T09:09:52;30.70;;;12.63;;
67749;SDS011;54550;48.838;8.828;2023-07-02T09:12:28;27.43;;;13.27;;
67749;SDS011;54550;48.838;8.828;2023-07-02T09:17:27;26.53;;;12.20;;
67749;SDS011;54550;48.838;8.828;2023-07-02T09:19:54;26.73;;;12.60;;
67749;SDS011;54550;48.838;8.828;2023-07-02T09:22:20;25.70;;;11.90;;
67749;SDS011;54550;48.838;8.828;2023-07-02T09:24:53;29.90;;;13.93;;
67749;SDS011;54550;48.838;8.828;2023-07-02T09:27:35;24.10;;;13.20;;
67749;SDS011;54550;48.838;8.828;2023-07-02T09:30:07;32.07;;;13.20;;
67749;SDS011;54550;48.838;8.828;2023-07-02T09:32:40;24.30;;;14.50;;
67749;SDS011;54550;48.838;8.828;2023-07-02T09:35:10;26.47;;;13.93;;
67749;SDS011;54550;48.838;8.828;2023-07-02T09:37:36;21.13;;;12.50;;
67749;SDS011;54550;48.838;8.828;2023-07-02T09:40:03;23.20;;;12.43;;
67749;SDS011;54550;48.838;8.828;2023-07-02T09:42:32;29.50;;;13.40;;
67749;SDS011;54550;48.838;8.828;2023-07-02T09:44:59;30.40;;;13.70;;
67749;SDS011;54550;48.838;8.828;2023-07-02T09:47:27;31.20;;;14.33;;
67749;SDS011;54550;48.838;8.828;2023-07-02T09:49:54;22.47;;;12.57;;
67749;SDS011;54550;48.838;8.828;2023-07-02T09:52:24;21.23;;;10.70;;
67749;SDS011;54550;48.838;8.828;2023-07-02T09:54:51;25.50;;;12.10;;
67749;SDS011;54550;48.838;8.828;2023-07-02T09:57:16;24.53;;;12.87;;
67749;SDS011;54550;48.838;8.828;2023-07-02T09:59:42;31.20;;;17.00;;
67749;SDS011;54550;48.838;8.828;2023-07-02T10:02:11;29.17;;;15.23;;
67749;SDS011;54550;48.838;8.828;2023-07-02T10:04:44;27.93;;;13.03;;
67749;SDS011;54550;48.838;8.828;2023-07-02T10:07:11;29.13;;;14.37;;
67749;SDS011;54550;48.838;8.828;2023-07-02T10:09:39;30.43;;;14.23;;
67749;SDS011;54550;48.838;8.828;2023-07-02T10:12:19;26.03;;;12.50;;
67749;SDS011;54550;48.838;8.828;2023-07-02T10:14:45;29.07;;;14.57;;
67749;SDS011;54550;48.838;8.828;2023-07-02T10:17:22;23.20;;;12.03;;
67749;SDS011;54550;48.838;8.828;2023-07-02T10:19:53;28.57;;;13.10;;
67749;SDS011;54550;48.838;8.828;2023-07-02T10:22:20;21.97;;;11.90;;
67749;SDS011;54550;48.838;8.828;2023-07-02T10:24:50;23.73;;;13.87;;
67749;SDS011;54550;48.838;8.828;2023-07-02T10:27:32;25.30;;;12.57;;
67749;SDS011;54550;48.838;8.828;2023-07-02T10:29:59;23.00;;;13.43;;
67749;SDS011;54550;48.838;8.828;2023-07-02T10:32:28;27.73;;;10.97;;
67749;SDS011;54550;48.838;8.828;2023-07-02T10:34:54;20.80;;;11.93;;
67749;SDS011;54550;48.838;8.828;2023-07-02T10:37:20;22.50;;;11.97;;
67749;SDS011;54550;48.838;8.828;2023-07-02T10:39:46;31.83;;;16.07;;
67749;SDS011;54550;48.838;8.828;2023-07-02T10:42:12;32.03;;;18.10;;
67749;SDS011;54550;48.838;8.828;2023-07-02T10:44:52;33.93;;;14.80;;
67749;SDS011;54550;48.838;8.828;2023-07-02T10:47:18;31.30;;;15.77;;
67749;SDS011;54550;48.838;8.828;2023-07-02T10:49:44;27.50;;;15.17;;
67749;SDS011;54550;48.838;8.828;2023-07-02T10:52:10;32.33;;;17.67;;
67749;SDS011;54550;48.838;8.828;2023-07-02T10:54:43;26.83;;;13.50;;
67749;SDS011;54550;48.838;8.828;2023-07-02T10:57:10;34.53;;;16.10;;
67749;SDS011;54550;48.838;8.828;2023-07-02T10:59:38;38.63;;;12.33;;
67749;SDS011;54550;48.838;8.828;2023-07-02T11:02:03;19.70;;;12.10;;
67749;SDS011;54550;48.838;8.828;2023-07-02T11:04:31;22.20;;;12.53;;
67749;SDS011;54550;48.838;8.828;2023-07-02T11:06:58;24.30;;;12.23;;
67749;SDS011;54550;48.838;8.828;2023-07-02T11:09:25;20.70;;;11.30;;
67749;SDS011;54550;48.838;8.828;2023-07-02T11:11:55;32.73;;;13.10;;
67749;SDS011;54550;48.838;8.828;2023-07-02T11:14:28;23.20;;;13.07;;
67749;SDS011;54550;48.838;8.828;2023-07-02T11:17:04;24.80;;;12.33;;
67749;SDS011;54550;48.838;8.828;2023-07-02T11:19:34;29.43;;;12.03;;
67749;SDS011;54550;48.838;8.828;2023-07-02T11:22:01;30.00;;;13.00;;
67749;SDS011;54550;48.838;8.828;2023-07-02T11:24:31;26.20;;;12.80;;
67749;SDS011;54550;48.838;8.828;2023-07-02T11:27:02;20.93;;;11.13;;
67749;SDS011;54550;48.838;8.828;2023-07-02T11:29:30;25.70;;;13.00;;
67749;SDS011;54550;48.838;8.828;2023-07-02T11:32:06;26.90;;;13.33;;
67749;SDS011;54550;48.838;8.828;2023-07-02T11:34:32;26.97;;;13.70;;
67749;SDS011;54550;48.838;8.828;2023-07-02T11:36:58;22.07;;;11.77;;
67749;SDS011;54550;48.838;8.828;2023-07-02T11:39:23;25.47;;;12.77;;
67749;SDS011;54550;48.838;8.828;2023-07-02T11:41:49;23.73;;;11.30;;
67749;SDS011;54550;48.838;8.828;2023-07-02T11:44:15;20.90;;;12.40;;
67749;SDS011;54550;48.838;8.828;2023-07-02T11:46:42;23.40;;;12.83;;
67749;SDS011;54550;48.838;8.828;2023-07-02T11:49:07;24.43;;;12.37;;
67749;SDS011;54550;48.838;8.828;2023-07-02T11:51:34;23.07;;;11.90;;
67749;SDS011;54550;48.838;8.828;2023-07-02T11:54:03;28.90;;;12.87;;
67749;SDS011;54550;48.838;8.828;2023-07-02T11:56:29;28.33;;;14.27;;
67749;SDS011;54550;48.838;8.828;2023-07-02T11:58:55;21.50;;;11.23;;
67749;SDS011;54550;48.838;8.828;2023-07-02T12:01:21;22.03;;;12.90;;
67749;SDS011;54550;48.838;8.828;2023-07-02T12:03:46;23.97;;;12.43;;
67749;SDS011;54550;48.838;8.828;2023-07-02T12:06:12;21.53;;;12.53;;
67749;SDS011;54550;48.838;8.828;2023-07-02T12:08:38;24.70;;;13.00;;
67749;SDS011;54550;48.838;8.828;2023-07-02T12:11:03;23.13;;;13.87;;
67749;SDS011;54550;48.838;8.828;2023-07-02T12:13:29;31.37;;;13.57;;
67749;SDS011;54550;48.838;8.828;2023-07-02T12:15:54;27.93;;;13.80;;
67749;SDS011;54550;48.838;8.828;2023-07-02T12:18:20;23.33;;;12.87;;
67749;SDS011;54550;48.838;8.828;2023-07-02T12:20:45;24.60;;;12.70;;
67749;SDS011;54550;48.838;8.828;2023-07-02T12:23:11;23.87;;;13.17;;
67749;SDS011;54550;48.838;8.828;2023-07-02T12:25:37;23.47;;;13.10;;
67749;SDS011;54550;48.838;8.828;2023-07-02T12:28:03;21.03;;;11.80;;
67749;SDS011;54550;48.838;8.828;2023-07-02T12:30:29;25.00;;;13.73;;
67749;SDS011;54550;48.838;8.828;2023-07-02T12:32:55;28.43;;;13.30;;
67749;SDS011;54550;48.838;8.828;2023-07-02T12:35:20;18.50;;;11.93;;
67749;SDS011;54550;48.838;8.828;2023-07-02T12:37:47;24.27;;;12.20;;
67749;SDS011;54550;48.838;8.828;2023-07-02T12:40:16;29.10;;;13.63;;
67749;SDS011;54550;48.838;8.828;2023-07-02T12:42:43;23.47;;;13.73;;
67749;SDS011;54550;48.838;8.828;2023-07-02T12:45:09;28.50;;;13.20;;
67749;SDS011;54550;48.838;8.828;2023-07-02T12:47:36;27.17;;;13.13;;
67749;SDS011;54550;48.838;8.828;2023-07-02T12:50:02;24.27;;;11.60;;
67749;SDS011;54550;48.838;8.828;2023-07-02T12:52:29;22.37;;;12.80;;
67749;SDS011;54550;48.838;8.828;2023-07-02T12:54:54;21.80;;;12.10;;
67749;SDS011;54550;48.838;8.828;2023-07-02T12:57:20;19.80;;;11.90;;
67749;SDS011;54550;48.838;8.828;2023-07-02T12:59:45;18.80;;;11.00;;
67749;SDS011;54550;48.838;8.828;2023-07-02T13:02:11;21.07;;;12.43;;
67749;SDS011;54550;48.838;8.828;2023-07-02T13:04:37;17.90;;;12.53;;
67749;SDS011;54550;48.838;8.828;2023-07-02T13:07:03;27.00;;;12.53;;
67749;SDS011;54550;48.838;8.828;2023-07-02T13:09:29;28.50;;;12.30;;
67749;SDS011;54550;48.838;8.828;2023-07-02T13:11:55;23.10;;;13.00;;
67749;SDS011;54550;48.838;8.828;2023-07-02T13:14:20;26.80;;;13.20;;
67749;SDS011;54550;48.838;8.828;2023-07-02T13:16:46;26.17;;;13.10;;
67749;SDS011;54550;48.838;8.828;2023-07-02T13:19:12;21.20;;;11.80;;
67749;SDS011;54550;48.838;8.828;2023-07-02T13:21:38;20.70;;;12.37;;
67749;SDS011;54550;48.838;8.828;2023-07-02T13:24:03;21.00;;;11.73;;
67749;SDS011;54550;48.838;8.828;2023-07-02T13:26:29;24.77;;;12.17;;
67749;SDS011;54550;48.838;8.828;2023-07-02T13:28:55;31.00;;;13.77;;
67749;SDS011;54550;48.838;8.828;2023-07-02T13:31:21;20.57;;;11.03;;
67749;SDS011;54550;48.838;8.828;2023-07-02T13:33:46;20.97;;;12.80;;
67749;SDS011;54550;48.838;8.828;2023-07-02T13:36:12;21.47;;;12.50;;
67749;SDS011;54550;48.838;8.828;2023-07-02T13:38:38;26.57;;;13.20;;
67749;SDS011;54550;48.838;8.828;2023-07-02T13:41:03;20.07;;;13.13;;
67749;SDS011;54550;48.838;8.828;2023-07-02T13:43:29;19.00;;;11.37;;
67749;SDS011;54550;48.838;8.828;2023-07-02T13:45:54;20.57;;;12.07;;
67749;SDS011;54550;48.838;8.828;2023-07-02T13:48:20;29.27;;;11.90;;
67749;SDS011;54550;48.838;8.828;2023-07-02T13:50:46;22.30;;;11.90;;
67749;SDS011;54550;48.838;8.828;2023-07-02T13:53:11;20.17;;;11.57;;
67749;SDS011;54550;48.838;8.828;2023-07-02T13:55:38;28.40;;;12.27;;
67749;SDS011;54550;48.838;8.828;2023-07-02T13:58:03;21.43;;;11.83;;
67749;SDS011;54550;48.838;8.828;2023-07-02T14:00:29;24.30;;;13.27;;
67749;SDS011;54550;48.838;8.828;2023-07-02T14:02:55;20.50;;;12.03;;
67749;SDS011;54550;48.838;8.828;2023-07-02T14:05:21;24.10;;;11.90;;
67749;SDS011;54550;48.838;8.828;2023-07-02T14:07:47;23.73;;;11.70;;
67749;SDS011;54550;48.838;8.828;2023-07-02T14:10:13;28.20;;;12.97;;
67749;SDS011;54550;48.838;8.828;2023-07-02T14:12:39;20.33;;;10.57;;
67749;SDS011;54550;48.838;8.828;2023-07-02T14:15:06;22.10;;;10.80;;
67749;SDS011;54550;48.838;8.828;2023-07-02T14:17:33;18.97;;;11.67;;
67749;SDS011;54550;48.838;8.828;2023-07-02T14:19:58;18.77;;;10.80;;
67749;SDS011;54550;48.838;8.828;2023-07-02T14:22:24;23.60;;;11.73;;
67749;SDS011;54550;48.838;8.828;2023-07-02T14:24:50;31.07;;;12.80;;
67749;SDS011;54550;48.838;8.828;2023-07-02T14:27:15;20.27;;;11.27;;
67749;SDS011;54550;48.838;8.828;2023-07-02T14:29:41;19.43;;;10.80;;
67749;SDS011;54550;48.838;8.828;2023-07-02T14:32:06;18.27;;;10.90;;